Rijkevorsel, Belgium
Current Conditions -  °F | °C
As of 11:42 PM on Monday 24 Nov 2014 (Local Time) from EHGR Reporting Station
Clear Clear  
Wind Chill: 34°   Ceiling: Unl
Heat Index: 34°   Visibility: 6mi
Dew Point: 34°   Wind: 1mph
Humidity: 100%   Direction: 270°W
Pressure: 30.33"   Gusts: NA
Location:  51.35°N, 4.76°E
Report Text: EHGR 242242Z AUTO 27001KT 9999 NCD 01/01 Q1027 BLU
Loading
Personal Weather Stations






























Interactive Weather Map New forecast layout! Learn more

10-Day Weather Forecast

Advertisements
Track Severe Weather on mobile